createdAt,value
2022-09-15T00:04:21.838Z,17.70
2022-09-15T00:09:24.382Z,17.60
2022-09-15T00:14:27.002Z,17.60
2022-09-15T00:19:29.650Z,17.70
2022-09-15T00:24:32.662Z,17.70
2022-09-15T00:29:35.845Z,17.90
2022-09-15T00:34:38.452Z,17.90
2022-09-15T00:39:41.093Z,17.90
2022-09-15T00:44:49.031Z,17.80
2022-09-15T00:49:59.004Z,17.70
2022-09-15T00:55:11.400Z,17.70
2022-09-15T01:00:18.276Z,17.90
2022-09-15T01:05:25.437Z,17.90
2022-09-15T01:10:31.413Z,17.90
2022-09-15T01:15:46.093Z,17.90
2022-09-15T01:20:57.497Z,17.90
2022-09-15T01:26:30.946Z,17.90
2022-09-15T01:32:12.131Z,17.80
2022-09-15T01:37:21.010Z,17.80
2022-09-15T01:42:26.013Z,17.70
2022-09-15T01:47:30.598Z,17.80
2022-09-15T01:52:33.782Z,17.80
2022-09-15T01:57:36.324Z,17.70
2022-09-15T02:02:48.306Z,17.80
2022-09-15T02:08:02.034Z,17.80
2022-09-15T02:13:20.801Z,17.60
2022-09-15T02:18:51.084Z,17.70
2022-09-15T02:24:01.233Z,17.60
2022-09-15T02:29:08.217Z,17.60
2022-09-15T02:34:21.884Z,17.60
2022-09-15T02:39:30.885Z,17.50
2022-09-15T02:44:33.597Z,17.50
2022-09-15T02:49:36.136Z,17.30
2022-09-15T02:54:38.741Z,17.10
2022-09-15T02:59:59.743Z,17.00
2022-09-15T03:05:02.319Z,17.00
2022-09-15T03:10:10.301Z,17.00
2022-09-15T03:15:15.012Z,17.10
2022-09-15T03:20:21.228Z,17.00
2022-09-15T03:25:26.704Z,16.90
2022-09-15T03:30:29.251Z,16.90
2022-09-15T03:35:31.784Z,16.90
2022-09-15T03:40:34.556Z,16.90
2022-09-15T03:45:38.855Z,17.00
2022-09-15T03:50:41.403Z,16.80
2022-09-15T03:55:45.388Z,16.80
2022-09-15T04:00:48.035Z,16.80
2022-09-15T04:05:50.715Z,16.70
2022-09-15T04:10:54.723Z,16.80
2022-09-15T04:15:59.227Z,16.90
2022-09-15T04:21:03.936Z,16.90
2022-09-15T04:26:14.524Z,16.80
2022-09-15T04:31:18.611Z,16.90
2022-09-15T04:36:23.765Z,16.90
2022-09-15T04:41:26.982Z,17.00
2022-09-15T04:46:29.613Z,16.90
2022-09-15T04:51:32.204Z,16.90
2022-09-15T04:56:34.793Z,16.90
2022-09-15T05:01:37.393Z,16.90
2022-09-15T05:06:40.195Z,16.90
2022-09-15T05:11:42.895Z,16.80
2022-09-15T05:16:45.452Z,16.70
2022-09-15T05:21:48.212Z,16.70
2022-09-15T05:26:50.909Z,16.60
2022-09-15T05:31:53.536Z,16.60
2022-09-15T05:36:57.058Z,16.60
2022-09-15T05:41:59.805Z,16.50
2022-09-15T05:47:02.546Z,16.40
2022-09-15T05:52:05.206Z,16.10
2022-09-15T05:57:07.837Z,16.20
2022-09-15T06:02:11.615Z,16.20
2022-09-15T06:07:14.347Z,16.20
2022-09-15T06:12:18.265Z,16.10
2022-09-15T06:17:23.005Z,16.20
2022-09-15T06:22:25.872Z,16.00
2022-09-15T06:27:28.443Z,16.00
2022-09-15T06:32:31.191Z,16.30
2022-09-15T06:37:34.558Z,15.40
2022-09-15T06:42:37.081Z,16.40
2022-09-15T06:47:39.681Z,16.50
2022-09-15T06:52:43.454Z,16.60
2022-09-15T06:57:46.230Z,16.70
2022-09-15T07:02:49.811Z,16.70
2022-09-15T07:07:52.981Z,16.80
2022-09-15T07:12:55.717Z,16.80
2022-09-15T07:17:59.357Z,16.80
2022-09-15T07:23:02.018Z,17.10
2022-09-15T07:28:04.723Z,17.20
2022-09-15T07:33:09.139Z,15.90
2022-09-15T07:38:11.775Z,17.00
2022-09-15T07:43:15.135Z,17.00
2022-09-15T07:48:17.784Z,16.90
2022-09-15T07:53:20.818Z,17.10
2022-09-15T07:58:24.270Z,17.10
2022-09-15T08:03:27.987Z,17.10
2022-09-15T08:08:30.849Z,17.40
2022-09-15T08:13:33.459Z,17.50
2022-09-15T08:18:36.499Z,17.50
2022-09-15T08:23:39.444Z,17.30
2022-09-15T08:28:42.362Z,17.40
2022-09-15T08:33:50.149Z,17.50
2022-09-15T08:38:52.761Z,17.60
2022-09-15T08:44:23.299Z,17.40
2022-09-15T08:49:50.054Z,17.60
2022-09-15T08:54:57.042Z,17.60
2022-09-15T08:59:59.609Z,17.80
2022-09-15T09:05:29.432Z,17.70
2022-09-15T09:10:55.695Z,18.00
2022-09-15T09:16:06.946Z,18.20
2022-09-15T09:21:12.739Z,18.30
2022-09-15T09:26:15.902Z,18.30
2022-09-15T09:31:23.110Z,18.70
2022-09-15T09:36:26.461Z,18.90
2022-09-15T09:41:36.233Z,18.80
2022-09-15T09:46:39.030Z,19.10
2022-09-15T09:51:53.760Z,19.20
2022-09-15T09:57:17.189Z,19.50
2022-09-15T10:02:23.454Z,19.60
2022-09-15T10:07:26.694Z,19.50
2022-09-15T10:12:41.284Z,19.50
2022-09-15T10:17:45.941Z,19.50
2022-09-15T10:22:48.782Z,19.50
2022-09-15T10:28:12.634Z,19.50
2022-09-15T10:33:26.514Z,19.50
2022-09-15T10:38:47.962Z,19.50
2022-09-15T10:44:11.898Z,19.70
2022-09-15T10:49:43.215Z,19.90
2022-09-15T10:55:13.769Z,19.80
2022-09-15T11:00:25.639Z,20.10
2022-09-15T11:05:53.146Z,20.20
2022-09-15T11:10:55.641Z,20.50
2022-09-15T11:16:10.082Z,20.50
2022-09-15T11:21:29.015Z,20.50
2022-09-15T11:26:40.003Z,20.60
2022-09-15T11:31:44.702Z,20.70
2022-09-15T11:36:53.457Z,20.50
2022-09-15T11:42:07.658Z,20.60
2022-09-15T11:47:16.420Z,20.40
2022-09-15T11:52:39.301Z,20.40
2022-09-15T11:58:02.442Z,20.40
2022-09-15T12:03:23.913Z,20.50
2022-09-15T12:08:41.130Z,20.00
2022-09-15T12:13:45.476Z,20.10
2022-09-15T12:18:59.508Z,20.10
2022-09-15T12:24:39.563Z,20.20
2022-09-15T12:29:49.549Z,20.20
2022-09-15T12:35:13.998Z,20.30
2022-09-15T12:40:30.126Z,20.20
2022-09-15T12:45:36.707Z,19.20
2022-09-15T12:50:41.901Z,19.50
2022-09-15T12:56:03.122Z,19.70
2022-09-15T13:01:26.760Z,19.50
2022-09-15T13:06:35.213Z,19.50
2022-09-15T13:11:41.984Z,19.10
2022-09-15T13:17:13.123Z,18.90
2022-09-15T13:22:27.177Z,18.80
2022-09-15T13:27:39.535Z,18.70
2022-09-15T13:32:58.156Z,18.90
2022-09-15T13:38:23.973Z,18.90
2022-09-15T13:43:45.296Z,18.80
2022-09-15T13:49:25.959Z,17.40
2022-09-15T13:54:28.582Z,17.40
2022-09-15T13:59:32.977Z,17.10
2022-09-15T14:04:35.724Z,16.70
2022-09-15T14:09:45.064Z,16.90
2022-09-15T14:14:53.919Z,17.10
2022-09-15T14:19:58.926Z,17.10
2022-09-15T14:25:08.105Z,17.70
2022-09-15T14:30:24.512Z,18.10
2022-09-15T14:35:31.200Z,18.40
2022-09-15T14:40:39.272Z,18.40
2022-09-15T14:51:16.375Z,18.70
2022-09-15T14:56:23.075Z,18.80
2022-09-15T15:01:35.177Z,18.90
2022-09-15T15:06:43.909Z,18.80
2022-09-15T15:11:58.030Z,18.90
2022-09-15T15:17:06.369Z,19.00
2022-09-15T15:22:23.051Z,18.90
2022-09-15T15:27:32.734Z,19.00
2022-09-15T15:32:35.345Z,19.10
2022-09-15T15:37:37.995Z,19.20
2022-09-15T15:43:16.611Z,19.20
2022-09-15T15:48:19.207Z,19.20
2022-09-15T15:53:23.392Z,19.20
2022-09-15T15:58:26.142Z,19.20
2022-09-15T16:03:28.756Z,19.20
2022-09-15T16:08:34.758Z,19.00
2022-09-15T16:13:37.709Z,18.80
2022-09-15T16:18:40.257Z,18.80
2022-09-15T16:23:42.972Z,18.80
2022-09-15T16:28:45.661Z,18.70
2022-09-15T16:33:48.274Z,18.70
2022-09-15T16:38:50.948Z,18.70
2022-09-15T16:43:54.317Z,18.70
2022-09-15T16:48:57.177Z,18.70
2022-09-15T16:53:59.779Z,18.90
2022-09-15T16:59:02.506Z,19.00
2022-09-15T17:04:14.826Z,18.90
2022-09-15T17:09:17.693Z,18.80
2022-09-15T17:14:20.896Z,18.60
2022-09-15T17:19:23.578Z,18.60
2022-09-15T17:24:26.149Z,18.50
2022-09-15T17:29:28.887Z,18.50
2022-09-15T17:34:31.455Z,18.40
2022-09-15T17:39:35.230Z,18.30
2022-09-15T17:44:37.910Z,18.20
2022-09-15T17:49:40.477Z,17.90
2022-09-15T17:54:43.058Z,17.90
2022-09-15T17:59:45.680Z,17.90
2022-09-15T18:04:48.360Z,18.00
2022-09-15T18:09:50.925Z,18.10
2022-09-15T18:14:53.593Z,18.10
2022-09-15T18:19:56.278Z,18.20
2022-09-15T18:24:58.889Z,18.30
2022-09-15T18:30:01.437Z,18.30
2022-09-15T18:35:04.178Z,18.30
2022-09-15T18:40:09.581Z,18.30
2022-09-15T18:46:07.501Z,18.30
2022-09-15T18:51:10.806Z,18.20
2022-09-15T18:56:15.378Z,18.20
2022-09-15T19:01:18.097Z,18.30
2022-09-15T19:06:20.834Z,18.40
2022-09-15T19:11:23.501Z,18.30
2022-09-15T19:16:46.750Z,18.30
2022-09-15T19:21:48.742Z,18.00
2022-09-15T19:26:51.376Z,17.80
2022-09-15T19:31:54.917Z,17.90
2022-09-15T19:36:57.714Z,17.80
2022-09-15T19:42:00.442Z,17.90
2022-09-15T19:47:03.337Z,18.10
2022-09-15T19:52:06.432Z,18.00
2022-09-15T19:57:09.188Z,17.90
2022-09-15T20:02:12.025Z,17.90
2022-09-15T20:07:14.757Z,17.80
2022-09-15T20:12:17.600Z,18.00
2022-09-15T20:17:20.233Z,17.90
2022-09-15T20:22:23.559Z,17.90
2022-09-15T20:27:26.162Z,17.80
2022-09-15T20:32:29.306Z,17.90
2022-09-15T20:37:37.292Z,17.80
2022-09-15T20:42:40.362Z,17.80
2022-09-15T20:47:42.925Z,18.10
2022-09-15T20:52:45.546Z,18.00
2022-09-15T20:57:48.281Z,18.20
2022-09-15T21:02:51.863Z,18.30
2022-09-15T21:07:54.434Z,18.30
2022-09-15T21:12:57.264Z,18.20
2022-09-15T21:18:00.378Z,18.10
2022-09-15T21:23:03.870Z,18.00
2022-09-15T21:28:06.979Z,18.00
2022-09-15T21:33:10.070Z,18.00
2022-09-15T21:38:12.625Z,18.00
2022-09-15T21:43:15.252Z,18.00
2022-09-15T21:48:17.854Z,17.90
2022-09-15T21:53:21.093Z,17.90
2022-09-15T21:58:26.163Z,17.80
2022-09-15T22:03:29.841Z,17.80
2022-09-15T22:08:32.373Z,17.80
2022-09-15T22:13:43.042Z,17.80
2022-09-15T22:18:46.205Z,17.70
2022-09-15T22:23:50.476Z,17.70
2022-09-15T22:28:53.693Z,17.60
2022-09-15T22:33:56.797Z,17.50
2022-09-15T22:39:04.523Z,17.60
2022-09-15T22:44:16.561Z,17.60
2022-09-15T22:49:19.710Z,17.60
2022-09-15T22:54:22.414Z,17.50
2022-09-15T22:59:24.933Z,17.70
2022-09-15T23:04:27.556Z,17.80
2022-09-15T23:09:34.177Z,17.70
2022-09-15T23:14:37.189Z,17.70
2022-09-15T23:19:40.111Z,17.70
2022-09-15T23:24:42.825Z,17.80
2022-09-15T23:29:45.457Z,17.80
2022-09-15T23:34:48.830Z,17.70
2022-09-15T23:39:51.554Z,17.70
2022-09-15T23:44:54.121Z,17.60
2022-09-15T23:49:56.761Z,17.60
2022-09-15T23:54:59.330Z,17.50
